Time;durP1;ratioP1;P1;durP2;ratioP2;P2;SDS_P1;SDS_P2;PMS_P1;PMS_P2;Temp;Humidity;BMP_temperature;BMP_pressure;BME280_temperature;BME280_humidity;BME280_pressure;Samples;Min_cycle;Max_cycle;Signal;HPM_P1;HPM_P2
2021/09/16 00:01:01;;;;;;;4.37;2.07;;;18.30;99.90;;;;;;5036166;28;20438;-68
2021/09/16 00:03:33;;;;;;;5.30;2.17;;;18.30;99.90;;;;;;5035736;28;20481;-68
2021/09/16 00:06:04;;;;;;;3.13;1.73;;;18.30;99.90;;;;;;5035700;28;20478;-68
2021/09/16 00:08:36;;;;;;;4.20;2.60;;;18.40;99.90;;;;;;5045147;28;20516;-67
2021/09/16 00:11:03;;;;;;;4.93;2.23;;;18.40;99.90;;;;;;5055868;28;20441;-68
2021/09/16 00:13:30;;;;;;;3.17;1.90;;;18.50;99.90;;;;;;5054776;28;20436;-68
2021/09/16 00:15:57;;;;;;;2.63;2.20;;;18.50;99.90;;;;;;5055719;28;20858;-68
2021/09/16 00:18:25;;;;;;;3.23;2.13;;;18.40;99.90;;;;;;5054465;28;20997;-68
2021/09/16 00:20:53;;;;;;;3.20;2.63;;;18.30;99.90;;;;;;5055569;28;20519;-68
2021/09/16 00:23:20;;;;;;;6.50;2.10;;;18.30;99.90;;;;;;5046679;28;20473;-68
2021/09/16 00:25:47;;;;;;;4.63;2.63;;;18.30;99.90;;;;;;5035320;28;20477;-67
2021/09/16 00:28:14;;;;;;;3.63;2.23;;;18.30;99.90;;;;;;5039187;28;20850;-68
2021/09/16 00:30:42;;;;;;;4.30;3.10;;;18.30;99.90;;;;;;5054888;28;20523;-68
2021/09/16 00:33:08;;;;;;;6.63;2.43;;;18.30;99.90;;;;;;5054372;28;20468;-67
2021/09/16 00:35:37;;;;;;;5.80;2.43;;;18.30;99.90;;;;;;5055376;28;20512;-67
2021/09/16 00:38:04;;;;;;;4.90;2.67;;;18.30;99.90;;;;;;5054238;28;20519;-68
2021/09/16 00:40:32;;;;;;;6.50;2.70;;;18.40;99.90;;;;;;5054788;28;20848;-68
2021/09/16 00:43:00;;;;;;;8.77;2.53;;;18.40;99.90;;;;;;5051300;28;20520;-68
2021/09/16 00:45:27;;;;;;;4.13;2.57;;;18.40;99.90;;;;;;5054902;28;20471;-68
2021/09/16 00:47:59;;;;;;;4.73;2.57;;;18.40;99.90;;;;;;5054330;28;20528;-68
2021/09/16 00:50:28;;;;;;;4.60;2.40;;;18.50;99.90;;;;;;5055227;28;20446;-67
2021/09/16 00:52:56;;;;;;;3.50;2.20;;;18.40;99.90;;;;;;5054289;28;20512;-67
2021/09/16 00:55:26;;;;;;;5.07;3.13;;;18.50;99.90;;;;;;5054726;28;20867;-67
2021/09/16 00:57:56;;;;;;;5.40;2.90;;;18.50;99.90;;;;;;5051861;28;20473;-68
2021/09/16 01:00:23;;;;;;;3.23;2.37;;;18.60;99.90;;;;;;5035041;28;20489;-68
2021/09/16 01:02:50;;;;;;;3.70;2.30;;;18.60;99.90;;;;;;5034377;28;21051;-67
2021/09/16 01:05:22;;;;;;;4.70;3.20;;;18.70;99.90;;;;;;5034529;28;20457;-68
2021/09/16 01:07:49;;;;;;;3.53;2.30;;;18.70;99.90;;;;;;5034484;28;20473;-67
2021/09/16 01:10:19;;;;;;;6.23;4.03;;;18.80;99.90;;;;;;5034626;28;20469;-68
2021/09/16 01:12:50;;;;;;;5.03;3.07;;;18.80;99.90;;;;;;5038738;28;20444;-67
2021/09/16 01:15:17;;;;;;;5.77;3.10;;;18.80;99.90;;;;;;5054446;28;20528;-68
2021/09/16 01:17:46;;;;;;;3.63;2.53;;;18.90;99.90;;;;;;5053411;28;20437;-68
2021/09/16 01:20:18;;;;;;;6.90;3.30;;;18.90;99.90;;;;;;5054074;28;20479;-68
2021/09/16 01:22:46;;;;;;;5.83;3.10;;;18.90;99.90;;;;;;5053752;28;20476;-67
2021/09/16 01:25:13;;;;;;;3.97;2.00;;;18.90;99.90;;;;;;5053992;28;20483;-67
2021/09/16 01:27:41;;;;;;;3.77;2.57;;;18.90;99.90;;;;;;5051557;28;20527;-67
2021/09/16 01:30:08;;;;;;;4.03;2.83;;;18.90;99.90;;;;;;5033821;28;20529;-67
2021/09/16 01:32:36;;;;;;;6.33;2.50;;;18.90;99.90;;;;;;5034189;28;20529;-68
2021/09/16 01:35:03;;;;;;;4.00;2.37;;;18.90;99.90;;;;;;5054130;28;20930;-68
2021/09/16 01:37:30;;;;;;;6.10;2.50;;;18.90;99.90;;;;;;5054163;28;20432;-68
2021/09/16 01:39:59;;;;;;;4.80;2.60;;;18.90;99.90;;;;;;5033714;28;20524;-69
2021/09/16 01:42:25;;;;;;;3.50;2.37;;;18.90;99.90;;;;;;5034281;28;20509;-68
2021/09/16 01:44:52;;;;;;;4.30;2.47;;;18.90;99.90;;;;;;5033748;28;20474;-67
2021/09/16 01:47:24;;;;;;;3.30;2.17;;;18.90;99.90;;;;;;5033762;28;20908;-67
2021/09/16 01:49:53;;;;;;;4.60;2.60;;;18.80;99.90;;;;;;5033576;28;20529;-67
2021/09/16 01:52:20;;;;;;;3.87;2.67;;;18.80;99.90;;;;;;5034141;28;20465;-67
2021/09/16 01:54:47;;;;;;;5.67;3.07;;;18.80;99.90;;;;;;5032927;28;20477;-67
2021/09/16 01:57:20;;;;;;;7.90;3.20;;;18.70;99.90;;;;;;5040882;28;20441;-67
2021/09/16 01:59:47;;;;;;;4.00;2.60;;;18.70;99.90;;;;;;5053453;28;20544;-67
2021/09/16 02:02:14;;;;;;;4.47;2.50;;;18.70;99.90;;;;;;5034159;28;20470;-67
2021/09/16 02:04:43;;;;;;;3.60;2.43;;;18.60;99.90;;;;;;5033668;28;20438;-68
2021/09/16 02:07:10;;;;;;;4.33;2.43;;;18.60;99.90;;;;;;5033450;28;20534;-68
2021/09/16 02:09:37;;;;;;;5.57;2.77;;;18.60;99.90;;;;;;5033569;28;20836;-68
2021/09/16 02:12:06;;;;;;;4.20;2.00;;;18.60;99.90;;;;;;5032883;28;20521;-67
2021/09/16 02:14:34;;;;;;;3.97;2.27;;;18.60;99.90;;;;;;5033506;28;20480;-67
2021/09/16 02:17:06;;;;;;;4.20;2.47;;;18.50;99.90;;;;;;5032855;28;20438;-67
2021/09/16 02:19:33;;;;;;;4.33;2.00;;;18.50;99.90;;;;;;5033120;28;20480;-68
2021/09/16 02:22:00;;;;;;;4.60;2.70;;;18.50;99.90;;;;;;5045006;28;20440;-68
2021/09/16 02:24:29;;;;;;;2.90;1.97;;;18.50;99.90;;;;;;5053391;28;20848;-67
2021/09/16 02:26:56;;;;;;;5.40;2.43;;;18.50;99.90;;;;;;5052223;28;20437;-68
2021/09/16 02:29:23;;;;;;;3.63;2.80;;;18.50;99.90;;;;;;5053215;28;20441;-67
2021/09/16 02:31:51;;;;;;;2.73;2.20;;;18.50;99.90;;;;;;5052468;28;20863;-67
2021/09/16 02:34:19;;;;;;;3.40;1.97;;;18.50;99.90;;;;;;5052684;28;20991;-67
2021/09/16 02:36:46;;;;;;;6.53;1.97;;;18.50;99.90;;;;;;5052498;28;20869;-68
2021/09/16 02:39:21;;;;;;;8.10;2.40;;;18.50;99.90;;;;;;5052657;28;20745;-68
2021/09/16 02:41:59;;;;;;;4.33;1.93;;;18.50;99.90;;;;;;5052553;28;20527;-67
2021/09/16 02:44:30;;;;;;;6.27;2.20;;;18.50;99.90;;;;;;5053172;28;20491;-68
2021/09/16 02:46:59;;;;;;;4.00;1.70;;;18.50;99.90;;;;;;5038388;28;20453;-69
2021/09/16 02:49:26;;;;;;;3.20;2.33;;;18.60;99.90;;;;;;5032445;28;20484;-67
2021/09/16 02:51:56;;;;;;;4.03;2.13;;;18.50;99.90;;;;;;5044626;28;20464;-67
2021/09/16 02:54:23;;;;;;;6.13;1.70;;;18.60;99.90;;;;;;5052755;28;20516;-67
2021/09/16 02:56:52;;;;;;;3.23;1.73;;;18.60;99.90;;;;;;5051981;28;20459;-67
2021/09/16 02:59:19;;;;;;;3.90;1.83;;;18.50;99.90;;;;;;5052586;28;20437;-67
2021/09/16 03:01:46;;;;;;;3.80;1.87;;;18.50;99.90;;;;;;5041208;28;20438;-67
2021/09/16 03:04:24;;;;;;;6.77;1.80;;;18.40;99.90;;;;;;5032058;28;20485;-67
2021/09/16 03:06:51;;;;;;;3.10;2.10;;;18.40;99.90;;;;;;5032598;28;20434;-67
2021/09/16 03:09:37;;;;;;;3.13;2.27;;;18.40;99.90;;;;;;5032669;28;20528;-67
2021/09/16 03:12:09;;;;;;;3.37;1.80;;;18.40;99.90;;;;;;5041610;28;20459;-68
2021/09/16 03:14:36;;;;;;;3.87;2.37;;;18.40;99.90;;;;;;5052318;28;20535;-67
2021/09/16 03:17:03;;;;;;;3.73;1.73;;;18.30;99.90;;;;;;5040128;28;20512;-67
2021/09/16 03:19:32;;;;;;;2.73;1.77;;;18.30;99.90;;;;;;5032715;28;20470;-67
2021/09/16 03:22:03;;;;;;;4.20;1.80;;;18.30;99.90;;;;;;5031968;28;20852;-68
2021/09/16 03:24:34;;;;;;;4.53;2.50;;;18.30;99.90;;;;;;5048333;28;20887;-68
2021/09/16 03:27:05;;;;;;;2.87;1.70;;;18.30;99.90;;;;;;5051259;28;20524;-67
2021/09/16 03:29:32;;;;;;;2.57;1.60;;;18.30;99.90;;;;;;5050804;28;20472;-68
2021/09/16 03:31:59;;;;;;;6.50;3.20;;;18.30;99.90;;;;;;5051643;28;20468;-67
2021/09/16 03:34:28;;;;;;;2.97;2.23;;;18.30;99.90;;;;;;5052376;28;20799;-68
2021/09/16 03:36:56;;;;;;;4.50;2.83;;;18.40;99.90;;;;;;5033824;28;20516;-67
2021/09/16 03:39:29;;;;;;;3.97;2.10;;;18.40;99.90;;;;;;5032483;28;20995;-67
2021/09/16 03:41:56;;;;;;;3.93;1.80;;;18.40;99.90;;;;;;5031999;28;20466;-67
2021/09/16 03:44:23;;;;;;;3.20;1.70;;;18.40;99.90;;;;;;5032108;28;20540;-67
2021/09/16 03:46:51;;;;;;;2.83;1.70;;;18.40;99.90;;;;;;5031657;28;21046;-67
2021/09/16 03:49:23;;;;;;;2.90;1.80;;;18.40;99.90;;;;;;5032343;28;20444;-67
2021/09/16 03:51:50;;;;;;;2.87;1.80;;;18.50;99.90;;;;;;5031754;28;20525;-68
2021/09/16 03:54:18;;;;;;;4.43;2.30;;;18.50;99.90;;;;;;5032388;28;20933;-68
2021/09/16 03:56:45;;;;;;;4.67;2.13;;;18.50;99.90;;;;;;5031789;28;20480;-67
2021/09/16 03:59:12;;;;;;;5.33;2.20;;;18.60;99.90;;;;;;5032297;28;20446;-67
2021/09/16 04:01:39;;;;;;;3.53;2.40;;;18.50;99.90;;;;;;5050920;28;20531;-67
2021/09/16 04:04:06;;;;;;;5.80;2.43;;;18.60;99.90;;;;;;5055963;28;20476;-68
2021/09/16 04:06:37;;;;;;;3.57;1.93;;;18.60;99.90;;;;;;5038500;28;20524;-68
2021/09/16 04:09:06;;;;;;;4.50;3.80;;;18.70;99.90;;;;;;5036116;28;20971;-68
2021/09/16 04:11:34;;;;;;;6.30;3.83;;;18.70;99.90;;;;;;5035491;28;20520;-67
2021/09/16 04:14:01;;;;;;;9.30;4.20;;;18.70;99.90;;;;;;5035443;28;20456;-68
2021/09/16 04:16:28;;;;;;;5.83;3.80;;;18.70;99.90;;;;;;5035385;28;21068;-67
2021/09/16 04:18:55;;;;;;;5.07;3.00;;;18.70;99.90;;;;;;5035474;28;20500;-67
2021/09/16 04:21:24;;;;;;;4.50;2.83;;;18.70;99.90;;;;;;5047468;28;20437;-69
2021/09/16 04:23:51;;;;;;;4.40;2.53;;;18.70;99.90;;;;;;5055542;28;20480;-67
2021/09/16 04:26:18;;;;;;;2.47;1.87;;;18.80;99.90;;;;;;5055144;28;20520;-67
2021/09/16 04:28:47;;;;;;;4.67;2.30;;;18.70;99.90;;;;;;5046588;28;20516;-68
2021/09/16 04:31:14;;;;;;;3.97;1.90;;;18.70;99.90;;;;;;5035719;28;20494;-67
2021/09/16 04:33:41;;;;;;;3.33;2.20;;;18.70;99.90;;;;;;5041756;28;20528;-67
2021/09/16 04:36:10;;;;;;;6.87;2.57;;;18.60;99.90;;;;;;5051180;28;20473;-67
2021/09/16 04:38:42;;;;;;;4.90;2.67;;;18.60;99.90;;;;;;5055220;28;21007;-67
2021/09/16 04:41:20;;;;;;;4.10;3.03;;;18.60;99.90;;;;;;5055067;28;20524;-67
2021/09/16 04:43:48;;;;;;;2.80;2.10;;;18.60;99.90;;;;;;5055377;28;20482;-68
2021/09/16 04:46:15;;;;;;;3.53;2.13;;;18.50;99.90;;;;;;5048861;28;20967;-67
2021/09/16 04:48:42;;;;;;;3.53;2.20;;;18.50;99.90;;;;;;5035198;28;20469;-67
2021/09/16 04:51:09;;;;;;;6.50;3.77;;;18.50;99.90;;;;;;5039017;28;20441;-68
2021/09/16 04:53:36;;;;;;;6.90;2.50;;;18.50;99.90;;;;;;5054728;28;20437;-67
2021/09/16 04:56:04;;;;;;;3.73;2.30;;;18.50;99.90;;;;;;5051687;28;20472;-67
2021/09/16 04:58:31;;;;;;;4.30;2.20;;;18.60;99.90;;;;;;5055018;28;20449;-68
2021/09/16 05:00:59;;;;;;;2.70;2.10;;;18.60;99.90;;;;;;5054318;28;20524;-68
2021/09/16 05:03:26;;;;;;;4.17;2.70;;;18.60;99.90;;;;;;5054894;28;20484;-68
2021/09/16 05:05:53;;;;;;;3.00;2.10;;;18.60;99.90;;;;;;5052970;28;20864;-68
2021/09/16 05:08:20;;;;;;;5.43;2.67;;;18.60;99.90;;;;;;5033543;28;20450;-68
2021/09/16 05:10:47;;;;;;;3.30;2.53;;;18.60;99.90;;;;;;5033498;28;20448;-69
2021/09/16 05:13:14;;;;;;;5.00;2.30;;;18.60;99.90;;;;;;5033611;28;20496;-68
2021/09/16 05:15:43;;;;;;;7.03;2.50;;;18.60;99.90;;;;;;5034142;28;20525;-68
2021/09/16 05:18:11;;;;;;;7.47;2.80;;;18.70;99.90;;;;;;5044739;28;20504;-68
2021/09/16 05:20:38;;;;;;;5.20;2.50;;;18.70;99.90;;;;;;5045231;28;20465;-68
2021/09/16 05:23:05;;;;;;;6.80;2.13;;;18.60;99.90;;;;;;5034075;28;20517;-68
2021/09/16 05:25:32;;;;;;;4.73;2.10;;;18.70;99.90;;;;;;5036823;28;20434;-68
2021/09/16 05:27:59;;;;;;;5.27;2.20;;;18.70;99.90;;;;;;5032710;28;20445;-68
2021/09/16 05:30:26;;;;;;;3.10;1.90;;;18.70;99.90;;;;;;5035288;28;21354;-67
2021/09/16 05:32:54;;;;;;;4.60;2.40;;;18.70;99.90;;;;;;5051127;28;20520;-68
2021/09/16 05:35:22;;;;;;;3.27;2.10;;;18.70;99.90;;;;;;5051105;28;21090;-68
2021/09/16 05:37:49;;;;;;;3.10;2.20;;;18.70;99.90;;;;;;5051098;28;20438;-67
2021/09/16 05:40:18;;;;;;;8.30;3.43;;;18.70;99.90;;;;;;5050650;28;21026;-67
2021/09/16 05:42:45;;;;;;;7.70;3.40;;;18.70;99.90;;;;;;5047489;28;20444;-67
2021/09/16 05:45:12;;;;;;;6.30;3.43;;;18.70;99.90;;;;;;5051209;28;20567;-67
2021/09/16 05:47:39;;;;;;;6.57;3.73;;;18.70;99.90;;;;;;5051071;28;20886;-66
2021/09/16 05:50:11;;;;;;;7.60;5.37;;;18.70;99.90;;;;;;5039002;28;20528;-66
2021/09/16 05:52:45;;;;;;;4.50;3.40;;;18.80;99.90;;;;;;5047363;28;20523;-67
2021/09/16 05:55:13;;;;;;;5.97;3.60;;;18.80;99.90;;;;;;5047647;28;20443;-66
2021/09/16 05:57:40;;;;;;;8.10;4.20;;;18.80;99.90;;;;;;5050289;28;20437;-67
2021/09/16 06:00:09;;;;;;;4.03;2.70;;;18.80;99.90;;;;;;5039765;28;20437;-68
2021/09/16 06:02:36;;;;;;;4.70;3.00;;;18.80;99.90;;;;;;5033375;28;20478;-67
2021/09/16 06:05:04;;;;;;;5.80;2.80;;;18.80;99.90;;;;;;5042942;28;20524;-66
2021/09/16 06:07:31;;;;;;;3.30;2.30;;;18.80;99.90;;;;;;5032092;28;20796;-67
2021/09/16 06:09:59;;;;;;;7.30;3.40;;;18.80;99.90;;;;;;5032872;28;20533;-67
2021/09/16 06:12:29;;;;;;;6.33;3.00;;;18.90;99.90;;;;;;5033548;28;20453;-67
2021/09/16 06:14:57;;;;;;;7.80;3.57;;;18.90;99.90;;;;;;5032265;28;20533;-67
2021/09/16 06:17:24;;;;;;;4.67;2.60;;;18.90;99.90;;;;;;5032564;28;20438;-66
2021/09/16 06:19:51;;;;;;;6.67;3.17;;;18.90;99.90;;;;;;5031565;28;20477;-67
2021/09/16 06:22:18;;;;;;;7.27;3.40;;;18.90;99.90;;;;;;5034750;28;20800;-67
2021/09/16 06:24:45;;;;;;;5.60;2.80;;;19.00;99.90;;;;;;5039894;28;20528;-67
2021/09/16 06:27:13;;;;;;;4.33;2.87;;;19.00;99.90;;;;;;5049485;28;20532;-67
2021/09/16 06:29:45;;;;;;;4.23;3.07;;;19.00;99.90;;;;;;5049739;28;20421;-67
2021/09/16 06:32:12;;;;;;;7.67;3.33;;;19.00;99.90;;;;;;5040559;28;20480;-67
2021/09/16 06:34:39;;;;;;;4.23;2.80;;;19.00;99.90;;;;;;5046275;28;20521;-67
2021/09/16 06:37:06;;;;;;;6.83;3.83;;;19.00;99.90;;;;;;5048125;28;20517;-67
2021/09/16 06:39:33;;;;;;;5.80;3.00;;;19.00;99.90;;;;;;5045814;28;20795;-68
2021/09/16 06:42:00;;;;;;;5.70;2.83;;;19.00;99.90;;;;;;5049357;28;20486;-66
2021/09/16 06:44:29;;;;;;;8.33;3.90;;;19.00;99.90;;;;;;5038303;28;20986;-68
2021/09/16 06:46:55;;;;;;;5.63;3.87;;;19.00;99.90;;;;;;5033058;28;20517;-67
2021/09/16 06:49:22;;;;;;;8.53;4.60;;;19.00;99.90;;;;;;5036283;28;20545;-67
2021/09/16 06:51:49;;;;;;;6.50;3.20;;;19.00;99.90;;;;;;5052633;28;20535;-67
2021/09/16 06:54:16;;;;;;;6.20;3.37;;;19.00;99.90;;;;;;5052976;28;20441;-67
2021/09/16 06:56:43;;;;;;;7.20;3.30;;;19.10;99.90;;;;;;5052993;28;20531;-67
2021/09/16 06:59:10;;;;;;;6.10;5.50;;;19.10;99.90;;;;;;5052612;28;20443;-67
2021/09/16 07:01:38;;;;;;;6.07;4.10;;;19.20;99.90;;;;;;5052593;28;20528;-67
2021/09/16 07:04:05;;;;;;;5.50;2.93;;;19.20;99.90;;;;;;5049609;28;20828;-67
2021/09/16 07:06:32;;;;;;;8.70;5.43;;;19.20;99.90;;;;;;5042899;28;20568;-68
2021/09/16 07:08:59;;;;;;;9.07;6.47;;;19.30;99.90;;;;;;5041452;28;20519;-67
2021/09/16 07:11:26;;;;;;;6.30;4.97;;;19.20;99.90;;;;;;5041075;28;20477;-67
2021/09/16 07:13:53;;;;;;;5.60;4.13;;;19.30;99.90;;;;;;5041435;28;20529;-67
2021/09/16 07:16:20;;;;;;;8.33;6.90;;;19.20;99.90;;;;;;5034805;28;20986;-67
2021/09/16 07:18:48;;;;;;;9.80;5.90;;;19.30;99.90;;;;;;5045758;28;20512;-67
2021/09/16 07:21:15;;;;;;;5.30;3.97;;;19.40;99.90;;;;;;5031856;28;20477;-67
2021/09/16 07:23:42;;;;;;;9.83;4.43;;;19.30;99.90;;;;;;5038525;28;20527;-68
2021/09/16 07:26:09;;;;;;;13.13;3.70;;;19.30;99.90;;;;;;5040220;28;20485;-68
2021/09/16 07:28:37;;;;;;;6.37;3.07;;;19.30;99.90;;;;;;5045556;28;20528;-68
2021/09/16 07:31:05;;;;;;;6.80;4.40;;;19.30;99.90;;;;;;5050925;28;20441;-68
2021/09/16 07:33:31;;;;;;;7.30;4.30;;;19.40;99.90;;;;;;5051035;28;20971;-69
2021/09/16 07:36:00;;;;;;;7.13;5.77;;;19.40;99.90;;;;;;5034684;28;20998;-69
2021/09/16 07:38:27;;;;;;;7.33;5.97;;;19.40;99.90;;;;;;5035534;28;20470;-69
2021/09/16 07:40:54;;;;;;;9.13;5.13;;;19.40;99.90;;;;;;5043704;28;20445;-68
2021/09/16 07:43:21;;;;;;;6.23;3.63;;;19.50;99.90;;;;;;5046670;28;20555;-68
2021/09/16 07:45:48;;;;;;;7.17;4.33;;;19.40;99.90;;;;;;5043714;28;20576;-68
2021/09/16 07:48:16;;;;;;;5.40;4.07;;;19.40;99.90;;;;;;5045901;28;20437;-68
2021/09/16 07:50:43;;;;;;;7.20;4.13;;;19.40;99.90;;;;;;5045014;28;20985;-68
2021/09/16 07:53:11;;;;;;;4.83;3.60;;;19.40;99.90;;;;;;5044811;28;20805;-68
2021/09/16 07:55:38;;;;;;;6.47;3.10;;;19.50;99.90;;;;;;5042549;28;20448;-68
2021/09/16 07:58:05;;;;;;;7.90;3.67;;;19.60;99.90;;;;;;5045843;28;20550;-68
2021/09/16 08:00:32;;;;;;;8.37;4.03;;;19.60;99.90;;;;;;5043351;28;20548;-68
2021/09/16 08:02:59;;;;;;;7.77;4.37;;;19.60;99.90;;;;;;5046924;28;20611;-68
2021/09/16 08:05:26;;;;;;;6.90;4.57;;;19.70;99.90;;;;;;5042401;28;20568;-68
2021/09/16 08:07:53;;;;;;;7.87;4.60;;;19.70;99.90;;;;;;5046546;28;20448;-68
2021/09/16 08:10:25;;;;;;;6.90;3.90;;;19.70;99.90;;;;;;5046366;28;20880;-68
2021/09/16 08:12:52;;;;;;;5.07;4.20;;;19.80;99.90;;;;;;5044088;28;20452;-68
2021/09/16 08:15:19;;;;;;;6.17;3.97;;;19.80;99.90;;;;;;5045165;28;20536;-68
2021/09/16 08:17:46;;;;;;;7.50;3.63;;;19.90;99.90;;;;;;5044129;28;20476;-68
2021/09/16 08:20:14;;;;;;;7.53;3.83;;;19.90;99.90;;;;;;5044416;28;20548;-68
2021/09/16 08:22:43;;;;;;;6.97;4.40;;;20.00;99.90;;;;;;5045113;28;20444;-67
2021/09/16 08:25:12;;;;;;;7.87;4.03;;;20.00;99.90;;;;;;5043610;28;20481;-68
2021/09/16 08:27:40;;;;;;;10.90;3.87;;;20.10;99.90;;;;;;5045531;28;20540;-68
2021/09/16 08:30:09;;;;;;;3.90;3.43;;;20.10;99.90;;;;;;5042594;28;20450;-68
2021/09/16 08:32:37;;;;;;;5.10;3.80;;;20.30;99.90;;;;;;5045355;28;20979;-68
2021/09/16 08:35:07;;;;;;;5.93;4.20;;;20.40;99.90;;;;;;5043496;28;20490;-68
2021/09/16 08:37:34;;;;;;;7.00;3.90;;;20.50;99.90;;;;;;5042886;28;20442;-68
2021/09/16 08:40:01;;;;;;;5.80;4.20;;;20.60;99.90;;;;;;5042859;28;20444;-69
2021/09/16 08:42:28;;;;;;;10.10;4.07;;;20.70;99.90;;;;;;5045650;28;20529;-69
2021/09/16 08:44:57;;;;;;;5.93;4.50;;;20.80;99.90;;;;;;5042784;28;21022;-68
2021/09/16 08:47:25;;;;;;;5.63;3.87;;;20.80;99.80;;;;;;5044213;28;20917;-68
2021/09/16 08:49:52;;;;;;;5.00;4.10;;;20.80;99.90;;;;;;5043200;28;20432;-68
2021/09/16 08:52:20;;;;;;;4.93;3.90;;;20.90;99.90;;;;;;5043995;28;20441;-68
2021/09/16 08:54:48;;;;;;;9.10;3.60;;;20.90;99.90;;;;;;5042915;28;20444;-68
2021/09/16 08:57:17;;;;;;;6.77;3.83;;;20.90;99.50;;;;;;5044515;28;20520;-68
2021/09/16 08:59:45;;;;;;;6.63;3.90;;;20.90;99.60;;;;;;5043104;28;20477;-68
2021/09/16 09:02:14;;;;;;;6.50;3.97;;;21.00;99.90;;;;;;5045074;28;20972;-68
2021/09/16 09:04:41;;;;;;;6.00;4.53;;;21.00;99.90;;;;;;5044350;28;20567;-69
2021/09/16 09:07:08;;;;;;;7.47;5.10;;;21.00;99.90;;;;;;5042083;28;20517;-68
2021/09/16 09:09:35;;;;;;;5.37;4.10;;;21.10;99.80;;;;;;5042216;28;20473;-69
2021/09/16 09:12:08;;;;;;;9.27;4.10;;;21.10;99.90;;;;;;5045159;28;20529;-68
2021/09/16 09:14:37;;;;;;;5.70;3.90;;;21.00;99.70;;;;;;5043606;28;20433;-68
2021/09/16 09:17:18;;;;;;;5.10;3.97;;;21.00;99.50;;;;;;5042207;28;20521;-68
2021/09/16 09:19:45;;;;;;;5.60;4.10;;;20.90;99.80;;;;;;5045882;28;20492;-68
2021/09/16 09:22:12;;;;;;;6.37;4.13;;;20.80;99.90;;;;;;5045958;28;20860;-68
2021/09/16 09:24:42;;;;;;;6.50;4.03;;;20.90;99.90;;;;;;5046082;28;20516;-68
2021/09/16 09:27:25;;;;;;;6.27;3.57;;;20.90;99.90;;;;;;5045947;28;20548;-68
2021/09/16 09:30:10;;;;;;;6.00;4.70;;;20.90;99.90;;;;;;5046867;28;20528;-68
2021/09/16 09:32:51;;;;;;;11.80;4.50;;;21.00;99.90;;;;;;5048758;28;20468;-68
2021/09/16 09:35:29;;;;;;;7.00;4.30;;;21.10;99.90;;;;;;5050308;28;20517;-68
2021/09/16 09:37:57;;;;;;;6.50;5.10;;;21.30;99.90;;;;;;5047206;28;20475;-68
2021/09/16 09:40:29;;;;;;;8.83;4.37;;;21.30;99.90;;;;;;5047799;28;20528;-68
2021/09/16 09:43:16;;;;;;;7.27;4.40;;;21.30;99.90;;;;;;5047067;28;20813;-68
2021/09/16 09:45:58;;;;;;;5.43;3.93;;;21.30;99.90;;;;;;5049625;28;20846;-68
2021/09/16 09:48:27;;;;;;;5.83;3.60;;;21.40;99.90;;;;;;5049631;28;20528;-68
2021/09/16 09:50:55;;;;;;;11.23;4.23;;;21.40;99.30;;;;;;5045556;28;20523;-68
2021/09/16 09:53:27;;;;;;;6.67;3.70;;;21.40;98.60;;;;;;5045526;28;20533;-68
2021/09/16 09:55:54;;;;;;;5.80;4.10;;;21.40;99.30;;;;;;5049047;28;20523;-68
2021/09/16 09:58:33;;;;;;;8.80;4.30;;;21.40;98.70;;;;;;5052968;28;20447;-68
2021/09/16 10:01:25;;;;;;;8.87;4.70;;;21.50;99.00;;;;;;5052753;28;20468;-68
2021/09/16 10:03:53;;;;;;;6.03;3.83;;;21.60;99.00;;;;;;5037322;28;20558;-68
2021/09/16 10:06:20;;;;;;;10.90;3.40;;;21.70;99.00;;;;;;5032680;28;20553;-68
2021/09/16 10:09:08;;;;;;;6.57;4.13;;;21.80;98.50;;;;;;5049436;28;20560;-68
2021/09/16 10:11:40;;;;;;;8.73;3.70;;;21.90;98.30;;;;;;5046165;28;20437;-69
2021/09/16 10:14:07;;;;;;;7.10;3.90;;;21.90;98.30;;;;;;5047533;28;20541;-68
2021/09/16 10:16:35;;;;;;;6.97;4.63;;;22.00;97.40;;;;;;5046836;28;20433;-70
2021/09/16 10:19:03;;;;;;;10.73;4.40;;;22.20;97.30;;;;;;5043447;28;20526;-69
2021/09/16 10:21:30;;;;;;;8.27;4.87;;;22.50;96.90;;;;;;5044024;28;20541;-69
2021/09/16 10:23:59;;;;;;;5.67;4.27;;;22.60;95.70;;;;;;5043691;28;20850;-68
2021/09/16 10:26:37;;;;;;;6.10;4.03;;;22.70;96.20;;;;;;5041071;28;20519;-68
2021/09/16 10:29:05;;;;;;;9.13;4.17;;;23.10;96.60;;;;;;5040784;28;20441;-70
2021/09/16 10:31:32;;;;;;;7.83;4.33;;;23.30;95.30;;;;;;5043944;28;20440;-69
2021/09/16 10:33:59;;;;;;;5.97;4.63;;;23.20;93.90;;;;;;5040402;28;20532;-69
2021/09/16 10:36:27;;;;;;;9.40;4.80;;;23.20;94.40;;;;;;5041303;28;20535;-68
2021/09/16 10:38:56;;;;;;;7.80;4.67;;;23.20;94.50;;;;;;5042229;28;20532;-69
2021/09/16 10:41:25;;;;;;;8.40;4.37;;;23.10;93.90;;;;;;5042056;28;20437;-68
2021/09/16 10:44:09;;;;;;;6.47;4.60;;;23.00;94.10;;;;;;5041811;28;20532;-68
2021/09/16 10:46:38;;;;;;;9.00;4.70;;;22.90;94.50;;;;;;5041284;28;20575;-68
2021/09/16 10:49:36;;;;;;;7.03;4.17;;;22.90;94.90;;;;;;5040131;28;20469;-68
2021/09/16 10:52:21;;;;;;;6.20;3.73;;;23.00;95.00;;;;;;5043323;28;20437;-69
2021/09/16 10:54:53;;;;;;;8.80;4.90;;;23.10;95.30;;;;;;5043311;28;20445;-69
2021/09/16 10:57:31;;;;;;;7.53;3.90;;;23.20;94.00;;;;;;5040928;28;21007;-68
2021/09/16 11:00:13;;;;;;;5.53;3.80;;;23.40;93.60;;;;;;5041497;28;20437;-69
2021/09/16 11:03:04;;;;;;;6.67;4.50;;;23.60;94.10;;;;;;5040288;28;20614;-68
2021/09/16 11:05:43;;;;;;;9.33;3.83;;;23.80;94.20;;;;;;5021392;28;20868;-69
2021/09/16 11:08:11;;;;;;;9.13;3.77;;;23.90;92.10;;;;;;5043335;28;20536;-68
2021/09/16 11:10:58;;;;;;;4.90;3.33;;;23.80;92.00;;;;;;5039783;28;20441;-69
2021/09/16 11:13:56;;;;;;;7.00;3.97;;;23.70;91.30;;;;;;5041008;28;20437;-68
2021/09/16 11:16:27;;;;;;;7.20;3.13;;;23.60;92.20;;;;;;5039864;28;20861;-69
2021/09/16 11:19:17;;;;;;;7.07;4.13;;;23.70;92.30;;;;;;5041934;28;20469;-68
2021/09/16 11:22:00;;;;;;;4.97;4.00;;;23.80;92.10;;;;;;5037840;28;20835;-68
2021/09/16 11:24:35;;;;;;;7.37;4.70;;;23.90;92.80;;;;;;5040688;28;20527;-69
2021/09/16 11:27:23;;;;;;;5.47;3.20;;;24.10;91.60;;;;;;5041447;28;20497;-69
2021/09/16 11:29:52;;;;;;;9.90;4.37;;;24.30;92.10;;;;;;5041606;28;20439;-69
2021/09/16 11:32:33;;;;;;;5.83;3.00;;;24.50;91.10;;;;;;5039268;28;20916;-69
2021/09/16 11:35:09;;;;;;;7.67;4.43;;;24.70;91.10;;;;;;5034265;28;20435;-69
2021/09/16 11:37:46;;;;;;;7.37;4.10;;;24.80;91.30;;;;;;5040424;28;20541;-68
2021/09/16 11:40:23;;;;;;;9.77;3.80;;;24.90;91.20;;;;;;5041430;28;20433;-69
2021/09/16 11:42:53;;;;;;;4.87;3.57;;;25.00;90.70;;;;;;5039027;28;20938;-68
2021/09/16 11:45:21;;;;;;;9.80;4.00;;;25.10;90.30;;;;;;5035806;28;20508;-68
2021/09/16 11:47:51;;;;;;;5.97;3.40;;;25.30;90.50;;;;;;5043392;28;20449;-68
2021/09/16 11:50:25;;;;;;;6.57;3.33;;;25.60;88.10;;;;;;5041500;28;21156;-68
2021/09/16 11:52:56;;;;;;;8.43;3.43;;;25.80;84.30;;;;;;5051285;28;20465;-68
2021/09/16 11:55:26;;;;;;;7.97;3.20;;;25.80;84.70;;;;;;5051937;28;20439;-68
2021/09/16 11:58:01;;;;;;;7.07;3.70;;;26.00;83.90;;;;;;5052472;28;20439;-68
2021/09/16 12:00:31;;;;;;;5.10;3.80;;;26.40;84.50;;;;;;5052630;28;20494;-69
2021/09/16 12:03:04;;;;;;;9.60;3.53;;;26.70;80.30;;;;;;5052391;28;20520;-69
2021/09/16 12:05:43;;;;;;;4.20;2.73;;;27.30;77.90;;;;;;5052338;28;20472;-69
2021/09/16 12:08:15;;;;;;;7.77;3.17;;;27.50;76.40;;;;;;5052206;28;21006;-68
2021/09/16 12:10:49;;;;;;;6.70;3.27;;;27.30;76.90;;;;;;5052441;28;20498;-67
2021/09/16 12:13:20;;;;;;;7.00;3.93;;;27.10;77.50;;;;;;5052145;28;20528;-68
2021/09/16 12:15:53;;;;;;;7.27;2.90;;;26.70;76.70;;;;;;5052512;28;20468;-68
2021/09/16 12:18:22;;;;;;;7.93;3.10;;;26.40;76.80;;;;;;5051988;28;20490;-69
2021/09/16 12:20:53;;;;;;;4.20;2.93;;;26.10;78.20;;;;;;5052442;28;20490;-68
2021/09/16 12:23:22;;;;;;;5.20;3.20;;;25.80;79.90;;;;;;5054235;28;20473;-68
2021/09/16 12:26:01;;;;;;;9.10;3.03;;;25.70;81.90;;;;;;5055848;28;20503;-68
2021/09/16 12:28:30;;;;;;;8.73;3.10;;;25.50;82.80;;;;;;5055478;28;20440;-68
2021/09/16 12:31:06;;;;;;;4.10;2.70;;;25.40;83.70;;;;;;5055775;28;20432;-69
2021/09/16 12:33:38;;;;;;;9.20;3.10;;;25.40;85.20;;;;;;5055278;28;20497;-69
2021/09/16 12:36:14;;;;;;;5.53;2.97;;;25.40;86.20;;;;;;5055714;28;20767;-67
2021/09/16 12:38:43;;;;;;;6.27;3.10;;;25.40;88.40;;;;;;5055613;28;20447;-68
2021/09/16 12:41:30;;;;;;;4.07;2.90;;;25.50;87.40;;;;;;5055547;28;20530;-68
2021/09/16 12:44:13;;;;;;;6.13;3.20;;;25.40;88.30;;;;;;5055759;28;20787;-68
2021/09/16 12:46:49;;;;;;;7.83;3.47;;;25.50;88.60;;;;;;5053450;28;20568;-68
2021/09/16 12:49:38;;;;;;;5.40;3.00;;;25.60;90.00;;;;;;5055375;28;20470;-69
2021/09/16 12:52:25;;;;;;;3.90;3.10;;;26.10;90.50;;;;;;5051100;28;20443;-68
2021/09/16 12:54:54;;;;;;;3.83;2.73;;;26.40;85.90;;;;;;5054835;28;20520;-68
2021/09/16 12:57:24;;;;;;;3.53;2.10;;;26.40;82.90;;;;;;5055065;28;20441;-68
2021/09/16 12:59:53;;;;;;;5.80;3.50;;;26.30;81.00;;;;;;5055201;28;20472;-68